SBOSBO TAB / TTCP
Speedbird OnlineSpeedbird Online TAB / TTCP

Tobago-Crown Point Airport
07:02 27.7°C

Location Scarborough, Trinidad and Tobago
Latitude: 11.149700164794922
Longitude: -60.83219909667969
Local Time 07:02 on 12 Apr 2024
UTC -4 hours (America/Port_of_Spain)
Currency £1 equals TTD 8.52
METAR TTCP 121000Z 05004KT 9999 FEW018 26/22 Q1014 NOSIG
TAF TAF TTCP 120400Z 1206/1306 06005KT 9999 FEW016 BECMG 1212/1214 10015KT FEW020 BECMG 1223/1301 06005KT FEW016
Weather As Of 12 Apr 2024 07:02
Description Clear sky
Wind 33 km/h from East (75°)
Cloud Cover 6%
Precipitation Rain: none, Snow: none
Sunrise 05:53
Sunset 18:14
NOTAM 3 active NOTAM
Rotations During the last 90 days there were
24 flights from UVF
20 flights to UVF
Web Wikipedia
Codes IATA: TAB
ICAO: TTCP
Altitude 12 Meter / 38 Feet
Distance 7,049 KM / 4,380 Miles
from London.
Runways
RunwayLength (m)Surface
112744Asphalt
292744Asphalt
Radio
TypeDescriptionFrequency
APPPIARCO APP119
GNDGND121.7
TWRTWR118.4
Live ATC



Support Speedbird Online

© 2017-2024 Speedbird Online